createdAt,value
2019-01-23T00:00:38.456Z,-2.40
2019-01-23T00:03:07.406Z,-2.50
2019-01-23T00:05:36.298Z,-2.60
2019-01-23T00:08:05.769Z,-2.50
2019-01-23T00:10:34.563Z,-2.60
2019-01-23T00:13:03.592Z,-2.60
2019-01-23T00:15:32.480Z,-2.50
2019-01-23T00:18:01.345Z,-2.50
2019-01-23T00:20:30.453Z,-2.50
2019-01-23T00:22:59.237Z,-2.60
2019-01-23T00:25:28.039Z,-2.60
2019-01-23T00:27:56.815Z,-2.60
2019-01-23T00:30:25.697Z,-2.70
2019-01-23T00:32:54.496Z,-2.70
2019-01-23T00:35:23.285Z,-2.70
2019-01-23T00:37:52.069Z,-2.60
2019-01-23T00:40:21.120Z,-2.60
2019-01-23T00:42:49.980Z,-2.70
2019-01-23T00:45:19.095Z,-2.70
2019-01-23T00:47:47.973Z,-2.80
2019-01-23T00:50:16.922Z,-2.80
2019-01-23T00:52:45.778Z,-2.80
2019-01-23T00:55:15.245Z,-2.80
2019-01-23T00:57:44.161Z,-2.80
2019-01-23T01:00:16.537Z,-2.90
2019-01-23T01:02:45.723Z,-2.90
2019-01-23T01:05:16.160Z,-2.90
2019-01-23T01:07:45.370Z,-3.00
2019-01-23T01:10:15.156Z,-3.00
2019-01-23T01:12:44.192Z,-3.00
2019-01-23T01:15:13.764Z,-3.10
2019-01-23T01:17:42.769Z,-3.10
2019-01-23T01:20:12.133Z,-3.10
2019-01-23T01:22:41.242Z,-3.20
2019-01-23T01:25:12.293Z,-3.20
2019-01-23T01:27:41.462Z,-3.30
2019-01-23T01:30:13.457Z,-3.30
2019-01-23T01:32:42.562Z,-3.30
2019-01-23T01:35:11.753Z,-3.40
2019-01-23T01:37:40.857Z,-3.50
2019-01-23T01:40:12.459Z,-3.50
2019-01-23T01:42:41.848Z,-3.50
2019-01-23T01:45:10.996Z,-3.60
2019-01-23T01:47:39.801Z,-3.60
2019-01-23T01:50:11.500Z,-3.70
2019-01-23T01:52:40.441Z,-3.80
2019-01-23T01:55:09.773Z,-3.80
2019-01-23T01:57:38.715Z,-3.80
2019-01-23T02:00:16.629Z,-3.80
2019-01-23T02:02:45.824Z,-3.80
2019-01-23T02:05:14.888Z,-3.80
2019-01-23T02:07:43.756Z,-3.80
2019-01-23T02:10:14.550Z,-3.80
2019-01-23T02:12:43.596Z,-3.80
2019-01-23T02:15:13.450Z,-3.80
2019-01-23T02:17:42.378Z,-3.80
2019-01-23T02:20:14.597Z,-3.90
2019-01-23T02:22:43.706Z,-3.90
2019-01-23T02:25:13.071Z,-3.90
2019-01-23T02:27:43.180Z,-4.10
2019-01-23T02:30:13.021Z,-4.20
2019-01-23T02:32:41.802Z,-4.30
2019-01-23T02:35:10.743Z,-4.50
2019-01-23T02:37:39.891Z,-4.50
2019-01-23T02:40:12.105Z,-4.60
2019-01-23T02:42:41.210Z,-4.80
2019-01-23T02:45:10.141Z,-4.80
2019-01-23T02:47:39.018Z,-5.00
2019-01-23T02:50:08.212Z,-5.10
2019-01-23T02:52:37.019Z,-5.20
2019-01-23T02:55:06.948Z,-5.20
2019-01-23T02:57:35.742Z,-5.30
2019-01-23T03:00:07.310Z,-5.40
2019-01-23T03:02:36.190Z,-5.40
2019-01-23T03:05:06.913Z,-5.40
2019-01-23T03:07:35.721Z,-5.40
2019-01-23T03:10:06.440Z,-5.40
2019-01-23T03:12:35.317Z,-5.50
2019-01-23T03:15:05.106Z,-5.60
2019-01-23T03:17:33.914Z,-5.70
2019-01-23T03:20:02.846Z,-5.70
2019-01-23T03:22:31.720Z,-5.80
2019-01-23T03:25:00.501Z,-5.90
2019-01-23T03:27:29.301Z,-5.90
2019-01-23T03:29:58.336Z,-6.00
2019-01-23T03:32:27.405Z,-6.00
2019-01-23T03:34:56.189Z,-6.00
2019-01-23T03:37:25.317Z,-6.10
2019-01-23T03:39:54.625Z,-6.20
2019-01-23T03:42:24.019Z,-6.20
2019-01-23T03:44:52.816Z,-6.20
2019-01-23T03:47:21.641Z,-6.30
2019-01-23T03:49:50.441Z,-6.40
2019-01-23T03:52:19.306Z,-6.40
2019-01-23T03:54:48.449Z,-6.40
2019-01-23T03:57:17.233Z,-6.40
2019-01-23T03:59:46.113Z,-6.50
2019-01-23T04:02:15.307Z,-6.50
2019-01-23T04:04:44.254Z,-6.50
2019-01-23T04:07:13.374Z,-6.60
2019-01-23T04:09:42.230Z,-6.60
2019-01-23T04:12:11.112Z,-6.70
2019-01-23T04:14:39.978Z,-6.70
2019-01-23T04:17:08.841Z,-6.70
2019-01-23T04:19:37.877Z,-6.80
2019-01-23T04:22:06.817Z,-6.80
2019-01-23T04:24:35.637Z,-6.80
2019-01-23T04:27:04.894Z,-6.80
2019-01-23T04:29:39.553Z,-6.80
2019-01-23T04:32:04.266Z,-6.90
2019-01-23T04:34:33.065Z,-7.00
2019-01-23T04:37:01.893Z,-7.00
2019-01-23T04:39:30.669Z,-7.00
2019-01-23T04:41:59.493Z,-7.10
2019-01-23T04:44:28.886Z,-7.00
2019-01-23T04:46:58.003Z,-7.00
2019-01-23T04:49:27.069Z,-6.90
2019-01-23T04:52:01.899Z,-7.00
2019-01-23T04:54:30.946Z,-7.00
2019-01-23T04:56:59.990Z,-7.10
2019-01-23T04:59:28.789Z,-7.20
2019-01-23T05:01:58.183Z,-7.30
2019-01-23T05:04:27.450Z,-7.30
2019-01-23T05:06:56.545Z,-7.30
2019-01-23T05:09:25.340Z,-7.40
2019-01-23T05:11:54.217Z,-7.30
2019-01-23T05:14:23.008Z,-7.40
2019-01-23T05:16:51.786Z,-7.40
2019-01-23T05:19:20.837Z,-7.40
2019-01-23T05:21:50.130Z,-7.50
2019-01-23T05:24:19.251Z,-7.50
2019-01-23T05:26:48.134Z,-7.50
2019-01-23T05:29:16.939Z,-7.50
2019-01-23T05:31:45.718Z,-7.50
2019-01-23T05:34:14.772Z,-7.40
2019-01-23T05:36:43.639Z,-7.50
2019-01-23T05:39:12.425Z,-7.50
2019-01-23T05:41:41.225Z,-7.50
2019-01-23T05:44:10.033Z,-7.50
2019-01-23T05:46:39.130Z,-7.50
2019-01-23T05:49:07.919Z,-7.50
2019-01-23T05:51:36.705Z,-7.50
2019-01-23T05:54:05.581Z,-7.60
2019-01-23T05:56:34.861Z,-7.60
2019-01-23T05:59:03.922Z,-7.70
2019-01-23T06:01:32.727Z,-7.70
2019-01-23T06:04:01.658Z,-7.80
2019-01-23T06:06:30.464Z,-7.80
2019-01-23T06:08:59.508Z,-7.80
2019-01-23T06:11:28.308Z,-7.80
2019-01-23T06:13:57.124Z,-7.80
2019-01-23T06:16:25.989Z,-7.80
2019-01-23T06:18:55.035Z,-7.80
2019-01-23T06:21:24.060Z,-7.80
2019-01-23T06:23:52.884Z,-7.80
2019-01-23T06:26:21.910Z,-7.90
2019-01-23T06:28:50.974Z,-7.90
2019-01-23T06:31:19.766Z,-7.90
2019-01-23T06:33:48.545Z,-7.90
2019-01-23T06:36:17.369Z,-7.90
2019-01-23T06:38:46.449Z,-7.80
2019-01-23T06:41:15.240Z,-7.70
2019-01-23T06:43:44.020Z,-7.60
2019-01-23T06:46:12.906Z,-7.60
2019-01-23T06:48:42.034Z,-7.60
2019-01-23T06:51:11.159Z,-7.60
2019-01-23T06:53:39.954Z,-7.60
2019-01-23T06:56:09.006Z,-7.50
2019-01-23T06:58:37.788Z,-7.50
2019-01-23T07:01:06.658Z,-7.40
2019-01-23T07:03:35.438Z,-7.30
2019-01-23T07:06:04.666Z,-7.20
2019-01-23T07:08:33.465Z,-7.10
2019-01-23T07:11:03.081Z,-7.10
2019-01-23T07:13:31.871Z,-7.00
2019-01-23T07:16:00.693Z,-6.90
2019-01-23T07:18:29.494Z,-6.80
2019-01-23T07:20:58.533Z,-6.80
2019-01-23T07:23:27.573Z,-6.70
2019-01-23T07:25:56.393Z,-6.60
2019-01-23T07:28:25.165Z,-6.60
2019-01-23T07:30:53.955Z,-6.50
2019-01-23T07:33:22.744Z,-6.40
2019-01-23T07:35:51.782Z,-6.30
2019-01-23T07:38:20.548Z,-6.20
2019-01-23T07:40:49.500Z,-6.10
2019-01-23T07:43:18.299Z,-6.00
2019-01-23T07:45:47.089Z,-6.00
2019-01-23T07:48:17.076Z,-6.00
2019-01-23T07:50:46.005Z,-5.80
2019-01-23T07:53:14.861Z,-5.90
2019-01-23T07:55:43.674Z,-5.70
2019-01-23T07:58:12.473Z,-5.70
2019-01-23T08:00:41.266Z,-5.60
2019-01-23T08:03:10.129Z,-5.60
2019-01-23T08:05:39.021Z,-5.50
2019-01-23T08:08:08.349Z,-5.50
2019-01-23T08:10:37.373Z,-5.40
2019-01-23T08:13:06.352Z,-5.40
2019-01-23T08:15:36.176Z,-5.30
2019-01-23T08:18:05.793Z,-5.30
2019-01-23T08:20:35.642Z,-5.30
2019-01-23T08:23:04.585Z,-5.20
2019-01-23T08:25:33.459Z,-5.10
2019-01-23T08:28:02.412Z,-5.10
2019-01-23T08:30:38.362Z,-5.00
2019-01-23T08:33:01.844Z,-4.80
2019-01-23T08:35:30.619Z,-4.80
2019-01-23T08:37:59.474Z,-4.70
2019-01-23T08:40:28.553Z,-4.80
2019-01-23T08:42:57.667Z,-4.70
2019-01-23T08:45:26.444Z,-4.60
2019-01-23T08:47:55.478Z,-4.60
2019-01-23T08:50:30.033Z,-4.40
2019-01-23T08:52:58.955Z,-4.30
2019-01-23T08:55:27.798Z,-4.40
2019-01-23T08:57:56.670Z,-4.50
2019-01-23T09:00:25.858Z,-4.60
2019-01-23T09:02:54.806Z,-4.60
2019-01-23T09:05:23.678Z,-4.40
2019-01-23T09:07:52.723Z,-4.30
2019-01-23T09:10:22.432Z,-4.20
2019-01-23T09:12:51.353Z,-4.10
2019-01-23T09:15:20.387Z,-4.10
2019-01-23T09:17:49.168Z,-3.90
2019-01-23T09:20:18.362Z,-3.90
2019-01-23T09:22:47.309Z,-3.40
2019-01-23T09:25:18.210Z,-3.20
2019-01-23T09:27:47.144Z,-2.90
2019-01-23T09:30:22.229Z,-2.60
2019-01-23T09:33:28.608Z,-2.30
2019-01-23T09:36:18.780Z,-2.10
2019-01-23T09:39:17.987Z,-1.90
2019-01-23T09:42:03.838Z,-1.70
2019-01-23T09:45:04.813Z,-1.70
2019-01-23T09:47:52.249Z,-0.90
2019-01-23T09:50:58.301Z,0.40
2019-01-23T09:53:38.016Z,0.50
2019-01-23T09:56:06.995Z,0.40
2019-01-23T09:58:36.033Z,0.20
2019-01-23T10:01:06.715Z,0.10
2019-01-23T10:03:35.806Z,0.30
2019-01-23T10:06:04.755Z,-0.80
2019-01-23T10:08:33.608Z,-0.80
2019-01-23T10:11:02.410Z,0.10
2019-01-23T10:13:31.198Z,0.30
2019-01-23T10:16:09.301Z,-0.10
2019-01-23T10:18:38.094Z,-0.60
2019-01-23T10:21:06.963Z,-1.50
2019-01-23T10:23:35.902Z,-1.30
2019-01-23T10:26:04.849Z,-1.50
2019-01-23T10:28:33.995Z,-1.80
2019-01-23T10:31:06.613Z,-1.60
2019-01-23T10:33:33.568Z,-1.60
2019-01-23T10:36:02.452Z,-1.50
2019-01-23T10:38:31.253Z,-1.70
2019-01-23T10:41:00.128Z,-1.40
2019-01-23T10:43:28.972Z,-0.90
2019-01-23T10:45:57.769Z,-0.30
2019-01-23T10:48:26.570Z,-0.30
2019-01-23T10:50:55.428Z,-0.50
2019-01-23T10:53:26.580Z,-0.60
2019-01-23T10:55:55.365Z,-1.00
2019-01-23T10:58:24.231Z,-1.00
2019-01-23T11:00:53.180Z,-0.90
2019-01-23T11:03:22.294Z,-0.90
2019-01-23T11:05:51.244Z,-0.80
2019-01-23T11:08:20.118Z,-0.50
2019-01-23T11:10:48.933Z,-0.50
2019-01-23T11:13:17.785Z,-0.40
2019-01-23T11:15:46.664Z,-0.10
2019-01-23T11:18:15.762Z,0.10
2019-01-23T11:20:44.558Z,-0.20
2019-01-23T11:23:13.596Z,-0.20
2019-01-23T11:25:42.453Z,-0.60
2019-01-23T11:28:11.234Z,-0.90
2019-01-23T11:30:40.172Z,-0.70
2019-01-23T11:33:09.222Z,-0.40
2019-01-23T11:35:38.153Z,-0.40
2019-01-23T11:38:07.105Z,-0.20
2019-01-23T11:40:36.154Z,-0.50
2019-01-23T11:43:05.011Z,-0.60
2019-01-23T11:45:33.944Z,-0.40
2019-01-23T11:48:02.802Z,-0.80
2019-01-23T11:50:31.585Z,-0.70
2019-01-23T11:53:00.459Z,-0.40
2019-01-23T11:55:29.510Z,-0.30
2019-01-23T11:57:58.381Z,-0.40
2019-01-23T12:00:29.931Z,-0.30
2019-01-23T12:02:59.096Z,-0.30
2019-01-23T12:05:28.185Z,-0.40
2019-01-23T12:07:57.134Z,-0.30
2019-01-23T12:10:26.064Z,-0.20
2019-01-23T12:12:54.996Z,-0.20
2019-01-23T12:15:24.401Z,-0.40
2019-01-23T12:17:53.339Z,-0.50
2019-01-23T12:20:22.398Z,-0.50
2019-01-23T12:22:51.380Z,-0.60
2019-01-23T12:25:20.351Z,-0.70
2019-01-23T12:27:49.342Z,-0.90
2019-01-23T12:30:21.601Z,-1.20
2019-01-23T12:32:50.782Z,-1.20
2019-01-23T12:35:19.729Z,-0.80
2019-01-23T12:37:48.677Z,-0.90
2019-01-23T12:40:18.034Z,-0.60
2019-01-23T12:42:46.990Z,-0.40
2019-01-23T12:45:21.320Z,-0.20
2019-01-23T12:47:50.243Z,-0.10
2019-01-23T12:50:22.108Z,0.00
2019-01-23T12:52:51.020Z,0.20
2019-01-23T12:55:19.909Z,0.10
2019-01-23T12:57:48.835Z,0.10
2019-01-23T13:00:21.314Z,-0.10
2019-01-23T13:02:50.197Z,-0.40
2019-01-23T13:05:20.029Z,-0.20
2019-01-23T13:07:48.986Z,0.00
2019-01-23T13:10:18.961Z,0.30
2019-01-23T13:12:48.021Z,0.50
2019-01-23T13:15:19.210Z,0.80
2019-01-23T13:17:48.129Z,0.70
2019-01-23T13:20:18.059Z,0.60
2019-01-23T13:22:47.088Z,0.70
2019-01-23T13:25:17.949Z,0.70
2019-01-23T13:27:47.009Z,0.60
2019-01-23T13:30:18.652Z,0.60
2019-01-23T13:32:47.688Z,0.60
2019-01-23T13:35:22.034Z,0.50
2019-01-23T13:37:51.142Z,0.40
2019-01-23T13:40:38.637Z,0.20
2019-01-23T13:43:08.113Z,0.30
2019-01-23T13:45:37.327Z,0.20
2019-01-23T13:48:08.372Z,0.10
2019-01-23T13:50:38.014Z,0.00
2019-01-23T13:53:07.445Z,-0.10
2019-01-23T13:55:36.541Z,-0.20
2019-01-23T13:58:06.681Z,-0.20
2019-01-23T14:00:40.058Z,-0.20
2019-01-23T14:03:10.153Z,-0.30
2019-01-23T14:05:39.747Z,-0.30
2019-01-23T14:08:10.108Z,-0.30
2019-01-23T14:10:39.763Z,-0.30
2019-01-23T14:13:10.370Z,-0.20
2019-01-23T14:15:40.637Z,-0.30
2019-01-23T14:18:10.028Z,-0.30
2019-01-23T14:20:39.417Z,-0.30
2019-01-23T14:23:08.942Z,-0.20
2019-01-23T14:25:38.431Z,-0.20
2019-01-23T14:28:07.587Z,-0.30
2019-01-23T14:30:42.462Z,-0.20
2019-01-23T14:33:16.522Z,-0.20
2019-01-23T14:35:46.825Z,-0.10
2019-01-23T14:38:16.307Z,0.00
2019-01-23T14:40:45.685Z,-0.20
2019-01-23T14:43:15.345Z,-0.20
2019-01-23T14:45:44.915Z,-0.10
2019-01-23T14:48:14.566Z,-0.40
2019-01-23T14:50:44.414Z,-0.60
2019-01-23T14:53:14.537Z,-0.60
2019-01-23T14:55:44.353Z,-0.80
2019-01-23T14:58:14.233Z,-0.80
2019-01-23T15:00:44.072Z,-0.90
2019-01-23T15:03:13.328Z,-0.90
2019-01-23T15:05:43.120Z,-0.90
2019-01-23T15:08:12.741Z,-0.90
2019-01-23T15:10:42.685Z,-1.00
2019-01-23T15:13:12.734Z,-1.00
2019-01-23T15:15:44.255Z,-1.00
2019-01-23T15:18:14.461Z,-1.00
2019-01-23T15:20:44.312Z,-1.00
2019-01-23T15:23:14.029Z,-1.00
2019-01-23T15:25:43.898Z,-1.00
2019-01-23T15:28:14.495Z,-0.90
2019-01-23T15:30:44.092Z,-0.90
2019-01-23T15:33:14.191Z,-0.90
2019-01-23T15:35:45.246Z,-1.00
2019-01-23T15:38:17.070Z,-0.90
2019-01-23T15:40:49.665Z,-1.00
2019-01-23T15:43:19.601Z,-1.10
2019-01-23T15:45:50.734Z,-1.00
2019-01-23T15:48:21.428Z,-0.90
2019-01-23T15:50:51.873Z,-1.00
2019-01-23T15:53:22.481Z,-1.00
2019-01-23T15:55:53.339Z,-1.10
2019-01-23T15:58:24.251Z,-1.10
2019-01-23T16:00:55.169Z,-1.10
2019-01-23T16:03:25.112Z,-1.20
2019-01-23T16:05:55.498Z,-1.20
2019-01-23T16:08:25.783Z,-1.30
2019-01-23T16:10:55.661Z,-1.40
2019-01-23T16:13:26.882Z,-1.40
2019-01-23T16:15:56.873Z,-1.50
2019-01-23T16:18:26.785Z,-1.50
2019-01-23T16:20:56.889Z,-1.50
2019-01-23T16:23:27.639Z,-1.50
2019-01-23T16:25:58.545Z,-1.60
2019-01-23T16:28:29.361Z,-1.60
2019-01-23T16:31:00.214Z,-1.60
2019-01-23T16:33:31.175Z,-1.60
2019-01-23T16:36:02.109Z,-1.60
2019-01-23T16:38:33.960Z,-1.60
2019-01-23T16:41:04.492Z,-1.60
2019-01-23T16:43:34.455Z,-1.60
2019-01-23T16:46:05.829Z,-1.60
2019-01-23T16:48:37.265Z,-1.70
2019-01-23T16:51:08.033Z,-1.70
2019-01-23T16:53:38.732Z,-1.70
2019-01-23T16:56:08.966Z,-1.70
2019-01-23T16:58:39.430Z,-1.80
2019-01-23T17:01:09.634Z,-1.80
2019-01-23T17:03:40.252Z,-1.80
2019-01-23T17:06:10.941Z,-1.80
2019-01-23T17:08:41.334Z,-1.80
2019-01-23T17:11:12.073Z,-1.80
2019-01-23T17:13:42.126Z,-1.80
2019-01-23T17:16:12.525Z,-1.80
2019-01-23T17:18:44.063Z,-1.80
2019-01-23T17:21:16.591Z,-1.80
2019-01-23T17:23:47.596Z,-1.80
2019-01-23T17:30:01.129Z,-1.80
2019-01-23T17:32:31.523Z,-1.80
2019-01-23T17:35:02.280Z,-1.90
2019-01-23T17:37:36.460Z,-1.90
2019-01-23T17:40:09.068Z,-1.90
2019-01-23T17:42:40.262Z,-2.00
2019-01-23T17:45:14.762Z,-2.00
2019-01-23T17:47:45.681Z,-2.00
2019-01-23T17:50:18.418Z,-2.10
2019-01-23T17:52:49.043Z,-2.10
2019-01-23T17:55:26.229Z,-2.10
2019-01-23T17:57:57.534Z,-2.10
2019-01-23T18:00:31.163Z,-2.10
2019-01-23T18:03:02.241Z,-2.10
2019-01-23T18:05:33.802Z,-2.10
2019-01-23T18:08:04.413Z,-2.10
2019-01-23T18:10:36.197Z,-2.10
2019-01-23T18:13:06.730Z,-2.10
2019-01-23T18:15:44.945Z,-2.20
2019-01-23T18:18:15.872Z,-2.20
2019-01-23T18:20:48.378Z,-2.20
2019-01-23T18:23:19.778Z,-2.20
2019-01-23T18:25:53.277Z,-2.20
2019-01-23T18:28:23.930Z,-2.20
2019-01-23T18:31:12.298Z,-2.20
2019-01-23T18:33:50.809Z,-2.20
2019-01-23T18:36:47.070Z,-2.20
2019-01-23T18:39:39.742Z,-2.30
2019-01-23T18:42:29.126Z,-2.30
2019-01-23T18:45:26.892Z,-2.40
2019-01-23T18:48:15.954Z,-2.40
2019-01-23T18:51:38.559Z,-2.40
2019-01-23T18:54:10.163Z,-2.40
2019-01-23T18:56:41.513Z,-2.50
2019-01-23T18:59:12.955Z,-2.50
2019-01-23T19:01:44.524Z,-2.50
2019-01-23T19:04:15.957Z,-2.50
2019-01-23T19:06:49.048Z,-2.50
2019-01-23T19:09:21.415Z,-2.40
2019-01-23T19:11:52.781Z,-2.50
2019-01-23T19:14:24.729Z,-2.50
2019-01-23T19:16:56.640Z,-2.50
2019-01-23T19:19:28.590Z,-2.50
2019-01-23T19:22:00.390Z,-2.50
2019-01-23T19:24:32.175Z,-2.50
2019-01-23T19:27:03.831Z,-2.60
2019-01-23T19:29:43.108Z,-2.60
2019-01-23T19:34:47.268Z,-2.50
2019-01-23T19:37:18.749Z,-2.50
2019-01-23T19:39:49.910Z,-2.50
2019-01-23T19:42:21.669Z,-2.50
2019-01-23T19:44:53.322Z,-2.50
2019-01-23T19:47:24.957Z,-2.50
2019-01-23T19:49:56.409Z,-2.50
2019-01-23T19:52:27.656Z,-2.50
2019-01-23T19:54:58.581Z,-2.50
2019-01-23T19:57:30.039Z,-2.60
2019-01-23T20:00:01.305Z,-2.70
2019-01-23T20:02:32.437Z,-2.70
2019-01-23T20:05:03.904Z,-2.70
2019-01-23T20:07:35.567Z,-2.80
2019-01-23T20:10:14.491Z,-2.80
2019-01-23T20:12:45.696Z,-2.80
2019-01-23T20:15:19.707Z,-2.80
2019-01-23T20:17:52.334Z,-2.90
2019-01-23T20:20:24.617Z,-2.90
2019-01-23T20:22:56.029Z,-2.90
2019-01-23T20:25:28.054Z,-2.90
2019-01-23T20:27:59.762Z,-2.90
2019-01-23T20:30:40.244Z,-2.90
2019-01-23T20:33:11.872Z,-3.00
2019-01-23T20:35:44.763Z,-3.00
2019-01-23T20:38:18.077Z,-3.00
2019-01-23T20:40:52.816Z,-3.00
2019-01-23T20:43:24.529Z,-2.70
2019-01-23T20:46:09.560Z,-3.00
2019-01-23T20:48:41.706Z,-3.00
2019-01-23T20:51:13.312Z,-3.00
2019-01-23T20:53:44.370Z,-3.10
2019-01-23T20:56:15.330Z,-3.10
2019-01-23T20:58:46.649Z,-3.10
2019-01-23T21:01:18.431Z,-3.10
2019-01-23T21:03:49.993Z,-3.10
2019-01-23T21:06:21.510Z,-3.20
2019-01-23T21:08:52.754Z,-3.20
2019-01-23T21:11:23.476Z,-3.20
2019-01-23T21:13:56.033Z,-3.20
2019-01-23T21:16:26.886Z,-3.20
2019-01-23T21:18:57.882Z,-3.30
2019-01-23T21:21:28.565Z,-3.30
2019-01-23T21:23:59.396Z,-3.20
2019-01-23T21:26:29.961Z,-3.20
2019-01-23T21:29:00.903Z,-3.20
2019-01-23T21:31:32.008Z,-3.20
2019-01-23T21:34:02.836Z,-3.20
2019-01-23T21:36:34.050Z,-3.30
2019-01-23T21:39:05.233Z,-3.30
2019-01-23T21:41:36.331Z,-3.30
2019-01-23T21:44:08.033Z,-3.30
2019-01-23T21:46:39.482Z,-3.30
2019-01-23T21:49:11.181Z,-3.40
2019-01-23T21:51:41.381Z,-3.30
2019-01-23T21:54:11.912Z,-3.30
2019-01-23T21:56:42.237Z,-3.30
2019-01-23T21:59:12.110Z,-3.40
2019-01-23T22:01:42.092Z,-3.30
2019-01-23T22:04:11.518Z,-3.30
2019-01-23T22:06:41.061Z,-3.30
2019-01-23T22:09:10.985Z,-3.40
2019-01-23T22:11:43.694Z,-3.40
2019-01-23T22:14:11.835Z,-3.40
2019-01-23T22:16:41.377Z,-3.30
2019-01-23T22:19:10.864Z,-3.40
2019-01-23T22:21:40.500Z,-3.40
2019-01-23T22:24:09.961Z,-3.40
2019-01-23T22:26:39.375Z,-3.40
2019-01-23T22:29:08.737Z,-3.40
2019-01-23T22:31:38.685Z,-3.40
2019-01-23T22:34:08.225Z,-3.40
2019-01-23T22:36:37.618Z,-3.50
2019-01-23T22:39:09.156Z,-3.40
2019-01-23T22:41:38.225Z,-3.40
2019-01-23T22:44:07.258Z,-3.40
2019-01-23T22:46:36.565Z,-3.40
2019-01-23T22:49:05.689Z,-3.40
2019-01-23T22:51:34.596Z,-3.40
2019-01-23T22:54:03.415Z,-3.40
2019-01-23T22:56:32.191Z,-3.40
2019-01-23T22:59:00.977Z,-3.30
2019-01-23T23:01:49.837Z,-3.30
2019-01-23T23:04:19.034Z,-3.30
2019-01-23T23:06:47.977Z,-3.30
2019-01-23T23:09:17.118Z,-3.30
2019-01-23T23:11:45.912Z,-3.40
2019-01-23T23:14:18.541Z,-3.40
2019-01-23T23:16:47.792Z,-3.40
2019-01-23T23:19:17.638Z,-3.50
2019-01-23T23:21:46.453Z,-3.40
2019-01-23T23:24:15.235Z,-3.40
2019-01-23T23:26:44.020Z,-3.50
2019-01-23T23:29:12.893Z,-3.40
2019-01-23T23:31:41.839Z,-3.40
2019-01-23T23:34:10.652Z,-3.40
2019-01-23T23:36:39.516Z,-3.50
2019-01-23T23:39:09.652Z,-3.50
2019-01-23T23:41:38.444Z,-3.50
2019-01-23T23:44:07.725Z,-3.40
2019-01-23T23:46:36.616Z,-3.50
2019-01-23T23:49:05.822Z,-3.50
2019-01-23T23:51:35.113Z,-3.50
2019-01-23T23:54:04.695Z,-3.50
2019-01-23T23:56:33.620Z,-3.50
2019-01-23T23:59:02.515Z,-3.50
